Weather at Maria Reiche Neuman Airport

Public forecast

Using degrees Celsius for public forecast. Weather courtesy of forecast.io.

Closest aviation weather report (METAR) to Maria Reiche Neuman Airport

Report is more than 6 hours old.

Closest report is Captain Renán Elías Olivera International Airport, 99.0 nm (183.3 km) NW.

2022/11/14 15:00 (retrieved 2 years ago)

SPSO 141500Z 23005KT 9999 OVC020 19/15 Q1015 RMK BIRD HAZARD RWY 22/04 PP000

Closest aviation forecast (TAF) to Maria Reiche Neuman Airport

Forecast is more than 12 hours old.

Closest forecast is Captain Renán Elías Olivera International Airport, 99.0 nm (183.3 km) NW.

2023/02/22 18:33 Correction (retrieved 1 year ago)

TAF COR SPSO 221700Z 2218/2318 27008KT CAVOK TX28/2220Z TN21/2311Z BECMG 2219/2222 22018KT FM230800 VRB04KT 6000 NSC TEMPO 2310/2312 4000 BR BKN005 BECMG 2313/2316 30010KT CAVOK